createdAt,value
2018-12-14T00:02:01.721Z,2.80
2018-12-14T00:04:28.946Z,2.70
2018-12-14T00:06:55.503Z,2.60
2018-12-14T00:09:22.102Z,2.70
2018-12-14T00:11:48.677Z,2.80
2018-12-14T00:14:15.272Z,2.80
2018-12-14T00:16:41.743Z,2.80
2018-12-14T00:19:08.338Z,2.80
2018-12-14T00:21:34.925Z,2.70
2018-12-14T00:24:01.531Z,2.60
2018-12-14T00:26:27.995Z,2.70
2018-12-14T00:28:54.493Z,2.70
2018-12-14T00:31:21.009Z,2.80
2018-12-14T00:33:47.456Z,2.70
2018-12-14T00:36:13.918Z,2.70
2018-12-14T00:38:40.584Z,2.70
2018-12-14T00:41:07.036Z,2.60
2018-12-14T00:43:33.499Z,2.70
2018-12-14T00:45:59.986Z,2.70
2018-12-14T00:48:26.453Z,2.70
2018-12-14T00:50:52.957Z,2.60
2018-12-14T00:53:19.420Z,2.50
2018-12-14T00:55:45.974Z,2.50
2018-12-14T00:58:12.442Z,2.50
2018-12-14T01:00:39.036Z,2.30
2018-12-14T01:03:05.602Z,2.50
2018-12-14T01:05:32.270Z,2.60
2018-12-14T01:07:58.734Z,2.70
2018-12-14T01:10:25.495Z,2.50
2018-12-14T01:12:51.893Z,2.60
2018-12-14T01:15:18.396Z,2.50
2018-12-14T01:17:44.847Z,2.60
2018-12-14T01:20:11.429Z,2.40
2018-12-14T01:22:37.902Z,2.40
2018-12-14T01:25:04.710Z,2.40
2018-12-14T01:27:31.286Z,2.40
2018-12-14T01:29:57.873Z,2.30
2018-12-14T01:32:24.451Z,2.30
2018-12-14T01:34:50.942Z,2.60
2018-12-14T01:37:17.412Z,2.50
2018-12-14T01:39:43.819Z,2.40
2018-12-14T01:42:10.293Z,2.50
2018-12-14T01:44:36.778Z,2.30
2018-12-14T01:47:03.419Z,2.20
2018-12-14T01:49:30.014Z,2.30
2018-12-14T01:51:56.603Z,2.20
2018-12-14T01:54:23.067Z,2.30
2018-12-14T01:56:49.651Z,2.60
2018-12-14T01:59:16.206Z,2.70
2018-12-14T02:01:43.837Z,2.50
2018-12-14T02:04:10.614Z,2.60
2018-12-14T02:06:37.246Z,2.40
2018-12-14T02:09:05.695Z,2.30
2018-12-14T02:11:32.276Z,2.40
2018-12-14T02:13:58.938Z,2.50
2018-12-14T02:16:25.524Z,2.30
2018-12-14T02:18:51.906Z,2.20
2018-12-14T02:21:18.514Z,2.40
2018-12-14T02:23:44.982Z,2.40
2018-12-14T02:26:11.686Z,2.40
2018-12-14T02:28:38.264Z,2.30
2018-12-14T02:31:05.163Z,2.40
2018-12-14T02:33:31.627Z,2.40
2018-12-14T02:35:58.233Z,2.40
2018-12-14T02:38:24.921Z,2.30
2018-12-14T02:40:51.416Z,2.40
2018-12-14T02:43:19.118Z,2.40
2018-12-14T02:45:45.606Z,2.60
2018-12-14T02:48:12.085Z,2.30
2018-12-14T02:50:38.682Z,2.30
2018-12-14T02:53:05.058Z,2.30
2018-12-14T02:55:31.573Z,2.10
2018-12-14T02:57:58.029Z,2.00
2018-12-14T03:00:24.541Z,2.00
2018-12-14T03:02:51.210Z,2.10
2018-12-14T03:05:17.712Z,2.00
2018-12-14T03:07:44.270Z,2.00
2018-12-14T03:10:10.978Z,2.10
2018-12-14T03:12:37.668Z,2.10
2018-12-14T03:15:04.582Z,2.10
2018-12-14T03:17:31.455Z,2.20
2018-12-14T03:19:58.176Z,2.10
2018-12-14T03:22:25.125Z,2.00
2018-12-14T03:24:51.737Z,2.00
2018-12-14T03:27:18.416Z,2.00
2018-12-14T03:29:44.875Z,2.10
2018-12-14T03:32:11.372Z,2.20
2018-12-14T03:34:37.952Z,2.10
2018-12-14T03:37:04.565Z,2.30
2018-12-14T03:39:31.023Z,2.30
2018-12-14T03:41:57.505Z,2.10
2018-12-14T03:44:23.965Z,2.10
2018-12-14T03:46:50.469Z,2.00
2018-12-14T03:49:16.955Z,2.10
2018-12-14T03:51:43.443Z,2.20
2018-12-14T03:54:10.900Z,2.00
2018-12-14T03:56:38.255Z,1.90
2018-12-14T03:59:05.759Z,1.90
2018-12-14T04:01:32.858Z,2.00
2018-12-14T04:03:59.425Z,2.20
2018-12-14T04:06:25.910Z,2.20
2018-12-14T04:08:52.466Z,2.40
2018-12-14T04:11:18.954Z,2.60
2018-12-14T04:13:45.539Z,2.40
2018-12-14T04:16:12.023Z,2.10
2018-12-14T04:18:38.491Z,2.00
2018-12-14T04:21:05.306Z,2.10
2018-12-14T04:23:31.857Z,2.00
2018-12-14T04:25:58.446Z,2.10
2018-12-14T04:28:24.902Z,2.40
2018-12-14T04:30:51.411Z,2.20
2018-12-14T04:33:18.090Z,2.00
2018-12-14T04:35:44.664Z,2.00
2018-12-14T04:38:11.126Z,2.00
2018-12-14T04:40:37.619Z,2.00
2018-12-14T04:43:04.198Z,2.00
2018-12-14T04:45:30.788Z,2.00
2018-12-14T04:47:57.353Z,2.00
2018-12-14T04:50:23.852Z,2.10
2018-12-14T04:52:50.539Z,2.20
2018-12-14T04:55:17.040Z,2.10
2018-12-14T04:57:43.610Z,2.30
2018-12-14T05:00:10.310Z,2.30
2018-12-14T05:02:36.921Z,2.10
2018-12-14T05:05:04.214Z,2.20
2018-12-14T05:07:30.626Z,2.20
2018-12-14T05:09:57.106Z,2.20
2018-12-14T05:12:23.593Z,2.00
2018-12-14T05:14:50.426Z,1.90
2018-12-14T05:17:17.358Z,2.00
2018-12-14T05:19:43.838Z,2.00
2018-12-14T05:22:10.329Z,2.00
2018-12-14T05:24:36.782Z,1.90
2018-12-14T05:27:03.510Z,2.10
2018-12-14T05:29:31.667Z,2.10
2018-12-14T05:32:00.723Z,2.00
2018-12-14T05:34:27.197Z,1.90
2018-12-14T05:36:53.784Z,2.00
2018-12-14T05:39:20.247Z,2.00
2018-12-14T05:41:46.848Z,2.20
2018-12-14T05:44:13.413Z,2.00
2018-12-14T05:46:39.914Z,2.00
2018-12-14T05:49:06.515Z,2.00
2018-12-14T05:51:33.098Z,2.00
2018-12-14T05:53:59.573Z,2.10
2018-12-14T05:56:26.932Z,2.20
2018-12-14T05:58:53.394Z,2.10
2018-12-14T06:01:22.402Z,2.40
2018-12-14T06:03:49.840Z,2.20
2018-12-14T06:06:16.995Z,2.20
2018-12-14T06:08:43.787Z,2.00
2018-12-14T06:11:10.377Z,2.10
2018-12-14T06:13:36.959Z,2.00
2018-12-14T06:16:03.558Z,1.90
2018-12-14T06:18:30.316Z,2.00
2018-12-14T06:20:56.848Z,2.10
2018-12-14T06:23:23.427Z,2.10
2018-12-14T06:25:50.134Z,2.40
2018-12-14T06:28:16.691Z,2.40
2018-12-14T06:30:43.178Z,2.20
2018-12-14T06:33:09.859Z,2.00
2018-12-14T06:35:36.445Z,2.00
2018-12-14T06:38:03.155Z,2.00
2018-12-14T06:40:29.617Z,2.00
2018-12-14T06:42:56.314Z,2.00
2018-12-14T06:45:22.895Z,1.90
2018-12-14T06:47:49.498Z,2.10
2018-12-14T06:50:16.150Z,2.10
2018-12-14T06:52:42.733Z,2.00
2018-12-14T06:55:09.195Z,2.20
2018-12-14T06:57:35.928Z,2.10
2018-12-14T07:00:05.075Z,2.00
2018-12-14T07:02:31.869Z,1.90
2018-12-14T07:04:58.431Z,2.00
2018-12-14T07:07:25.124Z,2.00
2018-12-14T07:09:51.695Z,1.90
2018-12-14T07:12:18.538Z,1.90
2018-12-14T07:14:45.240Z,2.10
2018-12-14T07:17:11.823Z,2.10
2018-12-14T07:19:38.421Z,2.00
2018-12-14T07:22:04.997Z,1.90
2018-12-14T07:24:31.790Z,1.90
2018-12-14T07:26:58.587Z,2.00
2018-12-14T07:29:25.703Z,1.90
2018-12-14T07:31:52.165Z,1.90
2018-12-14T07:34:18.875Z,2.00
2018-12-14T07:36:45.452Z,2.10
2018-12-14T07:39:12.170Z,2.20
2018-12-14T07:41:40.324Z,2.10
2018-12-14T07:44:07.433Z,2.00
2018-12-14T07:46:34.202Z,2.10
2018-12-14T07:49:01.495Z,2.10
2018-12-14T07:51:29.781Z,2.00
2018-12-14T07:53:56.357Z,2.10
2018-12-14T07:56:22.823Z,2.20
2018-12-14T07:58:49.725Z,2.30
2018-12-14T08:01:17.456Z,2.20
2018-12-14T08:03:44.072Z,2.50
2018-12-14T08:06:10.535Z,2.60
2018-12-14T08:08:40.233Z,2.50
2018-12-14T08:11:06.819Z,2.50
2018-12-14T08:13:34.927Z,2.30
2018-12-14T08:16:02.741Z,2.10
2018-12-14T08:18:29.434Z,2.30
2018-12-14T08:20:56.070Z,2.50
2018-12-14T08:23:22.774Z,2.40
2018-12-14T08:25:49.295Z,2.30
2018-12-14T08:28:15.887Z,2.50
2018-12-14T08:30:43.351Z,2.40
2018-12-14T08:33:09.989Z,2.30
2018-12-14T08:35:36.899Z,2.20
2018-12-14T08:38:03.459Z,2.20
2018-12-14T08:40:30.467Z,2.40
2018-12-14T08:42:57.087Z,2.30
2018-12-14T08:45:24.191Z,2.30
2018-12-14T08:47:51.235Z,2.50
2018-12-14T08:50:17.833Z,2.60
2018-12-14T08:52:45.278Z,2.50
2018-12-14T08:55:12.223Z,2.70
2018-12-14T08:57:39.503Z,2.60
2018-12-14T09:00:06.434Z,2.70
2018-12-14T09:02:32.999Z,2.60
2018-12-14T09:05:01.834Z,2.40
2018-12-14T09:07:28.809Z,2.40
2018-12-14T09:09:55.398Z,2.50
2018-12-14T09:12:22.858Z,2.50
2018-12-14T09:14:49.439Z,2.60
2018-12-14T09:17:16.015Z,2.60
2018-12-14T09:19:43.309Z,2.40
2018-12-14T09:22:09.990Z,2.40
2018-12-14T09:24:37.118Z,2.60
2018-12-14T09:27:03.797Z,2.50
2018-12-14T09:29:30.395Z,2.70
2018-12-14T09:31:56.977Z,2.70
2018-12-14T09:34:23.690Z,2.70
2018-12-14T09:36:50.258Z,2.60
2018-12-14T09:39:17.585Z,2.50
2018-12-14T09:41:45.043Z,2.60
2018-12-14T09:44:11.630Z,2.60
2018-12-14T09:46:38.315Z,2.50
2018-12-14T09:49:04.903Z,2.70
2018-12-14T09:51:31.478Z,2.50
2018-12-14T09:53:58.084Z,2.60
2018-12-14T09:56:24.661Z,2.70
2018-12-14T09:58:51.247Z,2.60
2018-12-14T10:01:17.825Z,2.60
2018-12-14T10:03:44.824Z,2.50
2018-12-14T10:06:15.671Z,2.50
2018-12-14T10:08:40.007Z,2.60
2018-12-14T10:11:06.602Z,2.40
2018-12-14T10:13:33.409Z,2.30
2018-12-14T10:16:00.315Z,2.40
2018-12-14T10:18:26.874Z,2.80
2018-12-14T10:20:53.478Z,2.60
2018-12-14T10:23:19.938Z,2.50
2018-12-14T10:25:46.577Z,2.40
2018-12-14T10:28:13.134Z,2.60
2018-12-14T10:30:39.628Z,2.70
2018-12-14T10:33:06.202Z,2.80
2018-12-14T10:35:32.839Z,2.70
2018-12-14T10:37:59.396Z,2.60
2018-12-14T10:40:26.003Z,2.60
2018-12-14T10:42:52.472Z,2.40
2018-12-14T10:45:20.203Z,2.30
2018-12-14T10:47:46.996Z,2.30
2018-12-14T10:50:13.585Z,2.40
2018-12-14T10:52:40.047Z,2.40
2018-12-14T10:55:06.860Z,2.30
2018-12-14T10:57:34.056Z,2.20
2018-12-14T11:00:00.806Z,2.30
2018-12-14T11:02:27.273Z,2.30
2018-12-14T11:04:53.758Z,2.20
2018-12-14T11:07:20.260Z,2.20
2018-12-14T11:09:47.086Z,2.20
2018-12-14T11:12:13.553Z,2.40
2018-12-14T11:14:40.125Z,2.30
2018-12-14T11:17:06.606Z,2.20
2018-12-14T11:19:33.204Z,2.20
2018-12-14T11:22:01.608Z,2.10
2018-12-14T11:24:28.484Z,2.10
2018-12-14T11:26:55.079Z,2.20
2018-12-14T11:29:22.333Z,2.30
2018-12-14T11:31:48.762Z,2.40
2018-12-14T11:34:15.215Z,2.40
2018-12-14T11:36:41.812Z,2.30
2018-12-14T11:39:08.387Z,2.10
2018-12-14T11:41:35.001Z,2.40
2018-12-14T11:44:01.470Z,2.40
2018-12-14T11:46:27.964Z,2.60
2018-12-14T11:48:54.734Z,2.70
2018-12-14T11:51:22.074Z,2.50
2018-12-14T11:53:48.651Z,2.40
2018-12-14T11:56:16.201Z,2.30
2018-12-14T11:58:42.895Z,2.20
2018-12-14T12:01:09.416Z,2.50
2018-12-14T12:03:36.057Z,2.50
2018-12-14T12:06:02.563Z,2.30
2018-12-14T12:08:29.122Z,2.20
2018-12-14T12:10:55.602Z,2.30
2018-12-14T12:13:22.160Z,2.50
2018-12-14T12:15:48.882Z,2.20
2018-12-14T12:18:15.343Z,2.20
2018-12-14T12:20:41.927Z,2.20
2018-12-14T12:23:08.386Z,2.30
2018-12-14T12:25:34.995Z,2.20
2018-12-14T12:28:01.461Z,2.20
2018-12-14T12:30:28.051Z,2.20
2018-12-14T12:32:54.538Z,2.30
2018-12-14T12:35:21.140Z,2.20
2018-12-14T12:37:47.633Z,2.20
2018-12-14T12:40:14.106Z,2.30
2018-12-14T12:42:40.606Z,2.20
2018-12-14T12:45:07.705Z,2.40
2018-12-14T12:47:34.635Z,2.50
2018-12-14T12:50:01.995Z,2.60
2018-12-14T12:52:28.615Z,2.50
2018-12-14T12:54:55.094Z,2.30
2018-12-14T12:57:21.699Z,2.20
2018-12-14T12:59:48.254Z,2.30
2018-12-14T13:02:14.874Z,2.10
2018-12-14T13:04:41.695Z,2.00
2018-12-14T13:07:08.251Z,2.00
2018-12-14T13:09:34.856Z,2.10
2018-12-14T13:12:01.422Z,2.10
2018-12-14T13:14:27.934Z,2.30
2018-12-14T13:16:54.431Z,2.40
2018-12-14T13:19:20.978Z,2.40
2018-12-14T13:21:47.437Z,2.40
2018-12-14T13:24:13.952Z,2.30
2018-12-14T13:26:40.467Z,2.20
2018-12-14T13:29:06.966Z,2.20
2018-12-14T13:31:33.452Z,2.40
2018-12-14T13:34:00.022Z,2.50
2018-12-14T13:36:26.778Z,2.50
2018-12-14T13:38:53.304Z,2.40
2018-12-14T13:41:19.842Z,2.30
2018-12-14T13:43:46.538Z,2.20
2018-12-14T13:46:13.161Z,2.40
2018-12-14T13:48:39.852Z,2.20
2018-12-14T13:51:06.367Z,2.30
2018-12-14T13:53:32.915Z,2.30
2018-12-14T13:55:59.469Z,2.20
2018-12-14T13:58:26.192Z,2.20
2018-12-14T14:00:52.657Z,2.00
2018-12-14T14:03:19.181Z,1.90
2018-12-14T14:05:45.743Z,2.10
2018-12-14T14:08:12.457Z,2.10
2018-12-14T14:10:39.241Z,2.10
2018-12-14T14:13:05.951Z,2.10
2018-12-14T14:15:32.574Z,2.00
2018-12-14T14:17:59.167Z,2.00
2018-12-14T14:20:28.231Z,1.90
2018-12-14T14:22:54.905Z,1.90
2018-12-14T14:25:21.504Z,2.00
2018-12-14T14:27:48.414Z,2.00
2018-12-14T14:30:14.987Z,2.00
2018-12-14T14:32:41.651Z,1.90
2018-12-14T14:35:08.189Z,1.90
2018-12-14T14:37:34.658Z,1.90
2018-12-14T14:40:04.185Z,1.80
2018-12-14T14:42:30.851Z,1.90
2018-12-14T14:44:59.882Z,1.80
2018-12-14T14:47:26.038Z,1.80
2018-12-14T14:49:52.599Z,1.90
2018-12-14T14:52:19.312Z,1.80
2018-12-14T14:54:45.979Z,1.90
2018-12-14T14:57:12.701Z,1.80
2018-12-14T14:59:39.293Z,1.60
2018-12-14T15:02:06.125Z,1.70
2018-12-14T15:04:32.806Z,1.70
2018-12-14T15:07:00.264Z,1.80
2018-12-14T15:09:28.593Z,1.80
2018-12-14T15:11:55.127Z,1.80
2018-12-14T15:14:21.712Z,1.80
2018-12-14T15:16:49.582Z,1.70
2018-12-14T15:19:17.205Z,1.60
2018-12-14T15:21:43.777Z,1.60
2018-12-14T15:24:11.312Z,1.70
2018-12-14T15:26:37.871Z,1.80
2018-12-14T15:29:04.716Z,1.70
2018-12-14T15:31:31.284Z,1.70
2018-12-14T15:33:57.913Z,1.70
2018-12-14T15:36:24.578Z,1.60
2018-12-14T15:38:51.186Z,1.70
2018-12-14T15:41:17.880Z,1.70
2018-12-14T15:43:44.390Z,1.70
2018-12-14T15:46:11.094Z,1.60
2018-12-14T15:48:39.021Z,1.70
2018-12-14T15:51:05.598Z,1.60
2018-12-14T15:53:32.320Z,1.70
2018-12-14T15:55:59.478Z,1.80
2018-12-14T15:58:26.190Z,1.60
2018-12-14T16:00:52.799Z,1.60
2018-12-14T16:03:19.435Z,1.60
2018-12-14T16:05:45.945Z,1.60
2018-12-14T16:08:12.403Z,1.80
2018-12-14T16:10:38.913Z,1.60
2018-12-14T16:13:05.521Z,1.60
2018-12-14T16:15:32.054Z,1.60
2018-12-14T16:17:58.784Z,1.60
2018-12-14T16:20:25.459Z,1.60
2018-12-14T16:22:52.373Z,1.60
2018-12-14T16:25:18.898Z,1.60
2018-12-14T16:27:45.519Z,1.50
2018-12-14T16:30:12.107Z,1.60
2018-12-14T16:32:38.677Z,1.60
2018-12-14T16:35:05.614Z,1.50
2018-12-14T16:37:32.171Z,1.60
2018-12-14T16:39:58.783Z,1.70
2018-12-14T16:42:25.391Z,1.60
2018-12-14T16:44:51.898Z,1.60
2018-12-14T16:47:18.436Z,1.60
2018-12-14T16:49:45.015Z,1.60
2018-12-14T16:52:11.732Z,1.50
2018-12-14T16:54:38.314Z,1.50
2018-12-14T16:57:05.946Z,1.50
2018-12-14T16:59:32.926Z,1.70
2018-12-14T17:02:01.281Z,1.60
2018-12-14T17:04:27.910Z,1.40
2018-12-14T17:06:54.542Z,1.40
2018-12-14T17:09:21.217Z,1.50
2018-12-14T17:11:47.885Z,1.50
2018-12-14T17:14:14.375Z,1.40
2018-12-14T17:16:40.987Z,1.50
2018-12-14T17:19:07.589Z,1.50
2018-12-14T17:21:35.024Z,1.50
2018-12-14T17:24:02.403Z,1.50
2018-12-14T17:26:29.125Z,1.40
2018-12-14T17:28:55.731Z,1.30
2018-12-14T17:31:22.348Z,1.40
2018-12-14T17:33:48.821Z,1.40
2018-12-14T17:36:15.321Z,1.50
2018-12-14T17:38:42.034Z,1.50
2018-12-14T17:41:08.551Z,1.40
2018-12-14T17:43:35.019Z,1.50
2018-12-14T17:46:01.760Z,1.40
2018-12-14T17:48:28.507Z,1.60
2018-12-14T17:50:55.065Z,1.70
2018-12-14T17:53:21.629Z,1.70
2018-12-14T17:55:48.330Z,1.70
2018-12-14T17:58:14.951Z,1.40
2018-12-14T18:00:41.787Z,1.60
2018-12-14T18:03:09.327Z,1.50
2018-12-14T18:05:35.940Z,1.40
2018-12-14T18:08:02.635Z,1.40
2018-12-14T18:10:29.126Z,1.40
2018-12-14T18:12:55.734Z,1.40
2018-12-14T18:15:22.402Z,1.50
2018-12-14T18:17:49.622Z,1.40
2018-12-14T18:20:16.196Z,1.30
2018-12-14T18:22:43.185Z,1.30
2018-12-14T18:25:10.223Z,1.50
2018-12-14T18:27:36.924Z,1.30
2018-12-14T18:30:05.193Z,1.40
2018-12-14T18:32:31.756Z,1.50
2018-12-14T18:34:58.870Z,1.50
2018-12-14T18:37:25.503Z,1.50
2018-12-14T18:39:51.985Z,1.50
2018-12-14T18:42:18.450Z,1.50
2018-12-14T18:44:45.214Z,1.50
2018-12-14T18:47:11.718Z,1.40
2018-12-14T18:49:38.409Z,1.30
2018-12-14T18:52:04.983Z,1.30
2018-12-14T18:54:33.223Z,1.20
2018-12-14T18:56:59.806Z,1.20
2018-12-14T18:59:28.038Z,1.40
2018-12-14T19:01:54.599Z,1.40
2018-12-14T19:04:21.215Z,1.40
2018-12-14T19:06:47.828Z,1.50
2018-12-14T19:09:14.438Z,1.40
2018-12-14T19:11:41.117Z,1.30
2018-12-14T19:14:08.621Z,1.30
2018-12-14T19:16:35.306Z,1.50
2018-12-14T19:19:02.093Z,1.30
2018-12-14T19:21:28.706Z,1.40
2018-12-14T19:23:55.238Z,1.20
2018-12-14T19:26:21.711Z,1.30
2018-12-14T19:28:48.282Z,1.20
2018-12-14T19:31:14.782Z,1.20
2018-12-14T19:33:41.462Z,1.20
2018-12-14T19:36:08.085Z,1.20
2018-12-14T19:38:35.550Z,1.30
2018-12-14T19:41:03.194Z,1.40
2018-12-14T19:43:29.694Z,1.20
2018-12-14T19:45:56.319Z,1.40
2018-12-14T19:48:22.797Z,1.50
2018-12-14T19:50:49.697Z,1.40
2018-12-14T19:53:16.304Z,1.30
2018-12-14T19:55:42.973Z,1.30
2018-12-14T19:58:09.444Z,1.30
2018-12-14T20:00:36.406Z,1.30
2018-12-14T20:03:03.306Z,1.40
2018-12-14T20:05:29.931Z,1.30
2018-12-14T20:07:58.273Z,1.20
2018-12-14T20:10:25.899Z,1.20
2018-12-14T20:12:52.546Z,1.10
2018-12-14T20:15:19.366Z,1.20
2018-12-14T20:17:45.967Z,1.10
2018-12-14T20:20:12.626Z,1.10
2018-12-14T20:22:39.250Z,1.10
2018-12-14T20:25:06.853Z,1.10
2018-12-14T20:27:33.511Z,1.10
2018-12-14T20:30:00.099Z,1.10
2018-12-14T20:32:27.044Z,1.30
2018-12-14T20:34:54.619Z,1.40
2018-12-14T20:37:21.344Z,1.30
2018-12-14T20:39:48.812Z,1.20
2018-12-14T20:42:15.437Z,1.20
2018-12-14T20:44:41.924Z,1.20
2018-12-14T20:47:08.502Z,1.30
2018-12-14T20:49:35.865Z,1.20
2018-12-14T20:52:03.132Z,1.30
2018-12-14T20:54:29.769Z,1.30
2018-12-14T20:56:56.434Z,1.20
2018-12-14T20:59:23.149Z,1.20
2018-12-14T21:01:49.762Z,1.20
2018-12-14T21:04:16.403Z,1.20
2018-12-14T21:06:43.315Z,1.20
2018-12-14T21:09:09.925Z,1.20
2018-12-14T21:11:36.592Z,1.20
2018-12-14T21:14:03.238Z,1.00
2018-12-14T21:16:29.848Z,1.10
2018-12-14T21:18:56.660Z,1.20
2018-12-14T21:21:24.328Z,1.10
2018-12-14T21:23:53.550Z,1.10
2018-12-14T21:26:20.107Z,1.20
2018-12-14T21:28:46.627Z,1.20
2018-12-14T21:31:13.102Z,1.20
2018-12-14T21:33:39.819Z,1.10
2018-12-14T21:36:07.324Z,1.20
2018-12-14T21:38:33.935Z,1.10
2018-12-14T21:41:02.054Z,1.10
2018-12-14T21:43:28.724Z,1.20
2018-12-14T21:45:55.340Z,1.10
2018-12-14T21:48:22.089Z,1.10
2018-12-14T21:50:48.584Z,1.00
2018-12-14T21:53:15.198Z,1.00
2018-12-14T21:55:41.823Z,1.00
2018-12-14T21:58:08.992Z,0.90
2018-12-14T22:00:35.680Z,1.20
2018-12-14T22:03:03.852Z,1.30
2018-12-14T22:05:30.460Z,1.20
2018-12-14T22:07:56.916Z,1.10
2018-12-14T22:10:23.667Z,1.10
2018-12-14T22:12:50.314Z,1.10
2018-12-14T22:15:16.836Z,1.10
2018-12-14T22:17:43.475Z,1.20
2018-12-14T22:20:09.986Z,1.20
2018-12-14T22:22:36.447Z,1.10
2018-12-14T22:25:03.730Z,1.10
2018-12-14T22:27:30.253Z,1.10
2018-12-14T22:29:56.875Z,1.10
2018-12-14T22:32:23.402Z,1.20
2018-12-14T22:34:50.168Z,1.10
2018-12-14T22:37:16.697Z,1.10
2018-12-14T22:39:43.502Z,1.40
2018-12-14T22:42:10.211Z,1.40
2018-12-14T22:44:36.713Z,1.20
2018-12-14T22:47:03.251Z,1.20
2018-12-14T22:49:29.853Z,1.20
2018-12-14T22:51:56.514Z,1.20
2018-12-14T22:54:23.043Z,1.10
2018-12-14T22:56:49.678Z,1.10
2018-12-14T22:59:16.295Z,1.10
2018-12-14T23:01:42.922Z,1.10
2018-12-14T23:04:09.486Z,1.10
2018-12-14T23:06:36.061Z,1.00
2018-12-14T23:09:04.027Z,1.20
2018-12-14T23:11:30.502Z,1.40
2018-12-14T23:13:57.032Z,1.40
2018-12-14T23:16:23.522Z,1.20
2018-12-14T23:18:50.105Z,1.30
2018-12-14T23:21:16.805Z,1.10
2018-12-14T23:23:43.312Z,1.20
2018-12-14T23:26:09.793Z,1.20
2018-12-14T23:28:36.282Z,1.00
2018-12-14T23:31:02.893Z,1.10
2018-12-14T23:33:29.354Z,1.10
2018-12-14T23:35:56.069Z,1.10
2018-12-14T23:38:22.626Z,1.10
2018-12-14T23:40:49.147Z,1.00
2018-12-14T23:43:15.614Z,0.80
2018-12-14T23:45:42.122Z,0.80
2018-12-14T23:48:08.689Z,0.80
2018-12-14T23:50:35.188Z,0.80
2018-12-14T23:53:01.759Z,0.90
2018-12-14T23:55:28.264Z,1.20
2018-12-14T23:57:54.906Z,1.20
